TAP979 LPMA-LPHR
Flight info
| Callsign | TAP979 |
|---|---|
| Flight time | 1h 51m |
| Altitude | 32000 |
| Route | GALOZ DCT IRKID/M075F320 DCT 35N020W DCT ETROX/M070F280 H104 VSM |
| Aircraft | A319/M-SDE3FGHIRWY/LB1 |
Departure
| Time | 2026-04-15 20:46 |
|---|---|
| Airport | Cristiano Ronaldo International Airport (LPMA) |
Arrival
| Time | 2026-04-15 22:37 |
|---|---|
| Airport | Horta Airport (LPHR) |
| Time | Latitude | Longitude | Altitude | Speed | Heading |
|---|---|---|---|---|---|
| 2026-04-15 20:16 | 32.69390 | -16.77630 | 169 ft | 0 kts | 137° |
| 2026-04-15 20:36 | 32.69390 | -16.77631 | 169 ft | 2 kts | 137° |
| 2026-04-15 20:36 | 32.69402 | -16.77644 | 169 ft | 2 kts | 137° |
| 2026-04-15 20:36 | 32.69416 | -16.77654 | 169 ft | 2 kts | 172° |
| 2026-04-15 20:37 | 32.69432 | -16.77654 | 169 ft | 2 kts | 196° |
| 2026-04-15 20:37 | 32.69443 | -16.77649 | 169 ft | 0 kts | 218° |
| 2026-04-15 20:40 | 32.69437 | -16.77656 | 169 ft | 3 kts | 224° |
| 2026-04-15 20:40 | 32.69421 | -16.77676 | 169 ft | 4 kts | 227° |
| 2026-04-15 20:40 | 32.69400 | -16.77708 | 169 ft | 6 kts | 232° |
| 2026-04-15 20:40 | 32.69369 | -16.77755 | 169 ft | 8 kts | 230° |
| 2026-04-15 20:41 | 32.69328 | -16.77804 | 169 ft | 8 kts | 224° |
| 2026-04-15 20:41 | 32.69299 | -16.77851 | 169 ft | 6 kts | 259° |
| 2026-04-15 20:41 | 32.69292 | -16.77871 | 169 ft | 0 kts | 246° |
| 2026-04-15 20:41 | 32.69292 | -16.77873 | 169 ft | 0 kts | 246° |
| 2026-04-15 20:42 | 32.69291 | -16.77875 | 169 ft | 0 kts | 246° |
| 2026-04-15 20:42 | 32.69289 | -16.77899 | 169 ft | 9 kts | 271° |
| 2026-04-15 20:43 | 32.69289 | -16.77987 | 169 ft | 12 kts | 267° |
| 2026-04-15 20:43 | 32.69245 | -16.78076 | 167 ft | 15 kts | 224° |
| 2026-04-15 20:43 | 32.69166 | -16.78169 | 163 ft | 17 kts | 225° |
| 2026-04-15 20:43 | 32.69075 | -16.78276 | 158 ft | 20 kts | 225° |
| 2026-04-15 20:44 | 32.68976 | -16.78382 | 153 ft | 17 kts | 210° |
| 2026-04-15 20:44 | 32.68900 | -16.78449 | 153 ft | 14 kts | 295° |
| 2026-04-15 20:44 | 32.68945 | -16.78434 | 153 ft | 0 kts | 44° |
| 2026-04-15 20:44 | 32.68946 | -16.78434 | 153 ft | 0 kts | 44° |
| 2026-04-15 20:45 | 32.68948 | -16.78432 | 153 ft | 1 kts | 44° |
| 2026-04-15 20:45 | 32.68960 | -16.78418 | 153 ft | 12 kts | 44° |
| 2026-04-15 20:45 | 32.69201 | -16.78142 | 165 ft | 81 kts | 45° |
| 2026-04-15 20:45 | 32.69747 | -16.77505 | 183 ft | 136 kts | 44° |
| 2026-04-15 20:46 | 32.70467 | -16.76642 | 583 ft | 145 kts | 46° |
| 2026-04-15 20:46 | 32.70986 | -16.75631 | 1177 ft | 147 kts | 73° |
| 2026-04-15 20:46 | 32.71051 | -16.74398 | 1697 ft | 161 kts | 96° |
| 2026-04-15 20:46 | 32.70396 | -16.73203 | 1937 ft | 197 kts | 145° |
| 2026-04-15 20:47 | 32.68949 | -16.72974 | 2120 ft | 233 kts | 195° |
| 2026-04-15 20:47 | 32.67487 | -16.73942 | 2655 ft | 250 kts | 216° |
| 2026-04-15 20:47 | 32.66055 | -16.75282 | 3168 ft | 271 kts | 219° |
| 2026-04-15 20:47 | 32.64486 | -16.76575 | 3965 ft | 278 kts | 211° |
| 2026-04-15 20:48 | 32.62808 | -16.77741 | 4855 ft | 281 kts | 207° |
| 2026-04-15 20:48 | 32.61100 | -16.78899 | 5696 ft | 286 kts | 213° |
| 2026-04-15 20:48 | 32.59688 | -16.80578 | 6518 ft | 292 kts | 235° |
| 2026-04-15 20:48 | 32.58859 | -16.82788 | 7300 ft | 297 kts | 257° |
| 2026-04-15 20:49 | 32.58764 | -16.85236 | 8072 ft | 300 kts | 277° |
| 2026-04-15 20:49 | 32.59026 | -16.87700 | 8881 ft | 303 kts | 278° |
| 2026-04-15 20:49 | 32.59292 | -16.90192 | 9662 ft | 307 kts | 278° |
| 2026-04-15 20:49 | 32.59559 | -16.92718 | 10410 ft | 310 kts | 277° |
| 2026-04-15 20:50 | 32.59836 | -16.95335 | 10736 ft | 331 kts | 277° |
| 2026-04-15 20:50 | 32.60127 | -16.98127 | 11009 ft | 349 kts | 277° |
| 2026-04-15 20:50 | 32.60427 | -17.01019 | 11613 ft | 356 kts | 277° |
| 2026-04-15 20:50 | 32.60726 | -17.03912 | 12282 ft | 360 kts | 277° |
| 2026-04-15 20:51 | 32.61056 | -17.06867 | 12967 ft | 363 kts | 281° |
| 2026-04-15 20:51 | 32.61815 | -17.09733 | 13629 ft | 367 kts | 295° |
| 2026-04-15 20:51 | 32.63133 | -17.12331 | 14274 ft | 369 kts | 309° |
| 2026-04-15 20:51 | 32.64936 | -17.14498 | 14863 ft | 371 kts | 323° |
| 2026-04-15 20:52 | 32.67098 | -17.16170 | 15450 ft | 372 kts | 331° |
| 2026-04-15 20:52 | 32.69335 | -17.17748 | 16044 ft | 375 kts | 330° |
| 2026-04-15 20:52 | 32.71588 | -17.19346 | 16640 ft | 378 kts | 330° |
| 2026-04-15 20:52 | 32.73851 | -17.20955 | 17229 ft | 382 kts | 330° |
| 2026-04-15 20:53 | 32.76136 | -17.22585 | 17781 ft | 385 kts | 330° |
| 2026-04-15 20:53 | 32.78446 | -17.24237 | 18355 ft | 389 kts | 330° |
| 2026-04-15 20:53 | 32.80770 | -17.25903 | 18874 ft | 392 kts | 330° |
| 2026-04-15 20:53 | 32.83117 | -17.27583 | 19387 ft | 395 kts | 330° |
| 2026-04-15 20:54 | 32.85482 | -17.29269 | 19904 ft | 397 kts | 330° |
| 2026-04-15 20:54 | 32.87859 | -17.30964 | 20430 ft | 400 kts | 330° |
| 2026-04-15 20:54 | 32.90251 | -17.32671 | 20949 ft | 402 kts | 330° |
| 2026-04-15 20:54 | 32.92657 | -17.34391 | 21498 ft | 404 kts | 330° |
| 2026-04-15 20:55 | 32.95066 | -17.36116 | 22056 ft | 405 kts | 329° |
| 2026-04-15 20:55 | 32.97487 | -17.37853 | 22598 ft | 407 kts | 329° |
| 2026-04-15 20:55 | 32.99914 | -17.39596 | 23125 ft | 408 kts | 329° |
| 2026-04-15 20:55 | 33.02300 | -17.41450 | 23620 ft | 411 kts | 320° |
| 2026-04-15 20:56 | 33.04338 | -17.43843 | 24061 ft | 413 kts | 314° |
| 2026-04-15 20:56 | 33.06320 | -17.46333 | 24469 ft | 414 kts | 313° |
| 2026-04-15 20:56 | 33.08303 | -17.48836 | 24856 ft | 417 kts | 313° |
| 2026-04-15 20:56 | 33.10295 | -17.51357 | 25232 ft | 419 kts | 313° |
| 2026-04-15 20:57 | 33.12298 | -17.53898 | 25601 ft | 421 kts | 313° |
| 2026-04-15 20:57 | 33.14307 | -17.56449 | 25973 ft | 423 kts | 313° |
| 2026-04-15 20:57 | 33.16329 | -17.59014 | 26329 ft | 425 kts | 313° |
| 2026-04-15 20:57 | 33.18363 | -17.61593 | 26680 ft | 428 kts | 313° |
| 2026-04-15 20:58 | 33.20404 | -17.64184 | 27035 ft | 430 kts | 313° |
| 2026-04-15 20:58 | 33.22452 | -17.66792 | 27386 ft | 432 kts | 313° |
| 2026-04-15 20:58 | 33.24513 | -17.69420 | 27739 ft | 434 kts | 313° |
| 2026-04-15 20:58 | 33.26583 | -17.72059 | 28091 ft | 436 kts | 313° |
| 2026-04-15 20:59 | 33.28662 | -17.74706 | 28440 ft | 438 kts | 313° |
| 2026-04-15 20:59 | 33.30757 | -17.77366 | 28780 ft | 440 kts | 313° |
| 2026-04-15 20:59 | 33.32859 | -17.80037 | 29127 ft | 442 kts | 313° |
| 2026-04-15 20:59 | 33.34941 | -17.82689 | 29452 ft | 444 kts | 313° |
| 2026-04-15 21:00 | 33.36367 | -17.84506 | 29672 ft | 445 kts | 313° |
| 2026-04-15 21:00 | 33.39181 | -17.88095 | 30087 ft | 448 kts | 313° |
| 2026-04-15 21:00 | 33.41312 | -17.90818 | 30397 ft | 449 kts | 313° |
| 2026-04-15 21:00 | 33.43451 | -17.93558 | 30672 ft | 451 kts | 313° |
| 2026-04-15 21:01 | 33.45591 | -17.96309 | 30945 ft | 452 kts | 313° |
| 2026-04-15 21:01 | 33.47734 | -17.99067 | 31213 ft | 453 kts | 313° |
| 2026-04-15 21:01 | 33.49887 | -18.01832 | 31482 ft | 454 kts | 313° |
| 2026-04-15 21:01 | 33.51343 | -18.03698 | 31717 ft | 453 kts | 313° |
| 2026-04-15 21:02 | 33.53464 | -18.06416 | 32106 ft | 451 kts | 313° |
| 2026-04-15 21:02 | 33.55604 | -18.09159 | 32498 ft | 449 kts | 313° |
| 2026-04-15 21:02 | 33.57731 | -18.11889 | 32881 ft | 447 kts | 313° |
| 2026-04-15 21:02 | 33.59851 | -18.14615 | 33270 ft | 445 kts | 313° |
| 2026-04-15 21:03 | 33.61957 | -18.17327 | 33648 ft | 444 kts | 313° |
| 2026-04-15 21:03 | 33.64056 | -18.20033 | 34054 ft | 441 kts | 313° |
| 2026-04-15 21:03 | 33.66145 | -18.22728 | 34300 ft | 439 kts | 313° |
| 2026-04-15 21:04 | 33.70250 | -18.28035 | 34643 ft | 431 kts | 313° |
| 2026-04-15 21:04 | 33.72290 | -18.30676 | 34979 ft | 429 kts | 312° |
| 2026-04-15 21:04 | 33.74316 | -18.33305 | 35244 ft | 429 kts | 312° |
| 2026-04-15 21:05 | 33.78372 | -18.38564 | 35317 ft | 428 kts | 312° |
| 2026-04-15 21:05 | 33.82415 | -18.43805 | 35319 ft | 427 kts | 312° |
| 2026-04-15 21:06 | 33.86452 | -18.49039 | 35325 ft | 427 kts | 312° |
| 2026-04-15 21:06 | 33.90495 | -18.54294 | 35325 ft | 428 kts | 312° |
| 2026-04-15 21:07 | 33.94505 | -18.59527 | 35324 ft | 428 kts | 311° |
| 2026-04-15 21:07 | 33.98539 | -18.64807 | 35321 ft | 428 kts | 311° |
| 2026-04-15 21:08 | 34.02571 | -18.70085 | 35319 ft | 428 kts | 311° |
| 2026-04-15 21:08 | 34.06614 | -18.75372 | 35317 ft | 429 kts | 311° |
| 2026-04-15 21:09 | 34.10653 | -18.80674 | 35318 ft | 429 kts | 311° |
| 2026-04-15 21:09 | 34.14690 | -18.85978 | 35321 ft | 429 kts | 311° |
| 2026-04-15 21:10 | 34.18731 | -18.91296 | 35324 ft | 429 kts | 311° |
| 2026-04-15 21:10 | 34.22765 | -18.96611 | 35326 ft | 429 kts | 311° |
| 2026-04-15 21:11 | 34.26792 | -19.01931 | 35335 ft | 429 kts | 311° |
| 2026-04-15 21:11 | 34.30822 | -19.07258 | 35333 ft | 429 kts | 311° |
| 2026-04-15 21:12 | 34.34843 | -19.12576 | 35336 ft | 428 kts | 311° |
| 2026-04-15 21:12 | 34.38862 | -19.17894 | 35340 ft | 428 kts | 311° |
| 2026-04-15 21:13 | 34.42876 | -19.23220 | 35342 ft | 428 kts | 310° |
| 2026-04-15 21:13 | 34.46883 | -19.28555 | 35338 ft | 428 kts | 310° |
| 2026-04-15 21:14 | 34.50889 | -19.33893 | 35338 ft | 428 kts | 310° |
| 2026-04-15 21:14 | 34.54883 | -19.39231 | 35335 ft | 428 kts | 310° |
| 2026-04-15 21:15 | 34.58860 | -19.44539 | 35332 ft | 428 kts | 310° |
| 2026-04-15 21:15 | 34.62860 | -19.49885 | 35334 ft | 428 kts | 310° |
| 2026-04-15 21:16 | 34.66858 | -19.55243 | 35335 ft | 428 kts | 309° |
| 2026-04-15 21:16 | 34.70853 | -19.60611 | 35336 ft | 428 kts | 309° |
| 2026-04-15 21:17 | 34.74843 | -19.65977 | 35338 ft | 428 kts | 309° |
| 2026-04-15 21:17 | 34.78834 | -19.71347 | 35343 ft | 427 kts | 309° |
| 2026-04-15 21:18 | 34.82816 | -19.76708 | 35345 ft | 427 kts | 309° |
| 2026-04-15 21:18 | 34.86788 | -19.82079 | 35344 ft | 427 kts | 309° |
| 2026-04-15 21:19 | 34.90759 | -19.87454 | 35346 ft | 426 kts | 309° |
| 2026-04-15 21:19 | 34.94729 | -19.92832 | 35348 ft | 426 kts | 309° |
| 2026-04-15 21:20 | 34.98672 | -19.98214 | 35347 ft | 425 kts | 305° |
| 2026-04-15 21:20 | 35.01624 | -20.04347 | 35339 ft | 418 kts | 291° |
| 2026-04-15 21:21 | 35.04004 | -20.10819 | 35340 ft | 418 kts | 291° |
| 2026-04-15 21:21 | 35.06405 | -20.17296 | 35337 ft | 418 kts | 291° |
| 2026-04-15 21:22 | 35.08792 | -20.23727 | 35338 ft | 418 kts | 291° |
| 2026-04-15 21:22 | 35.11181 | -20.30208 | 35327 ft | 418 kts | 291° |
| 2026-04-15 21:23 | 35.13566 | -20.36698 | 35331 ft | 418 kts | 291° |
| 2026-04-15 21:23 | 35.15946 | -20.43186 | 35332 ft | 418 kts | 291° |
| 2026-04-15 21:24 | 35.18324 | -20.49681 | 35331 ft | 418 kts | 291° |
| 2026-04-15 21:24 | 35.20696 | -20.56171 | 35335 ft | 418 kts | 291° |
| 2026-04-15 21:25 | 35.23065 | -20.62666 | 35337 ft | 418 kts | 291° |
| 2026-04-15 21:25 | 35.25424 | -20.69154 | 35337 ft | 417 kts | 290° |
| 2026-04-15 21:26 | 35.27778 | -20.75647 | 35341 ft | 417 kts | 290° |
| 2026-04-15 21:26 | 35.30134 | -20.82135 | 35339 ft | 417 kts | 290° |
| 2026-04-15 21:27 | 35.32486 | -20.88623 | 35342 ft | 417 kts | 290° |
| 2026-04-15 21:27 | 35.34811 | -20.95072 | 35336 ft | 416 kts | 290° |
| 2026-04-15 21:28 | 35.37139 | -21.01566 | 35338 ft | 416 kts | 290° |
| 2026-04-15 21:28 | 35.39486 | -21.08100 | 35336 ft | 416 kts | 290° |
| 2026-04-15 21:29 | 35.41803 | -21.14552 | 35338 ft | 416 kts | 290° |
| 2026-04-15 21:29 | 35.44122 | -21.21048 | 35336 ft | 416 kts | 290° |
| 2026-04-15 21:30 | 35.46442 | -21.27544 | 35337 ft | 416 kts | 290° |
| 2026-04-15 21:30 | 35.48762 | -21.34048 | 35335 ft | 416 kts | 290° |
| 2026-04-15 21:31 | 35.52236 | -21.43808 | 35330 ft | 416 kts | 290° |
| 2026-04-15 21:32 | 35.55691 | -21.53534 | 35330 ft | 416 kts | 289° |
| 2026-04-15 21:32 | 35.57991 | -21.60055 | 35333 ft | 416 kts | 289° |
| 2026-04-15 21:33 | 35.60289 | -21.66580 | 35326 ft | 416 kts | 289° |
| 2026-04-15 21:33 | 35.62588 | -21.73105 | 35326 ft | 416 kts | 289° |
| 2026-04-15 21:34 | 35.64882 | -21.79632 | 35330 ft | 416 kts | 289° |
| 2026-04-15 21:34 | 35.67170 | -21.86158 | 35333 ft | 415 kts | 289° |
| 2026-04-15 21:35 | 35.69449 | -21.92684 | 35335 ft | 415 kts | 289° |
| 2026-04-15 21:35 | 35.71721 | -21.99212 | 35342 ft | 414 kts | 289° |
| 2026-04-15 21:36 | 35.73987 | -22.05723 | 35342 ft | 414 kts | 289° |
| 2026-04-15 21:36 | 35.76253 | -22.12236 | 35342 ft | 413 kts | 289° |
| 2026-04-15 21:37 | 35.78514 | -22.18735 | 35343 ft | 413 kts | 288° |
| 2026-04-15 21:37 | 35.80763 | -22.25235 | 35343 ft | 412 kts | 288° |
| 2026-04-15 21:38 | 35.83015 | -22.31730 | 35348 ft | 412 kts | 288° |
| 2026-04-15 21:38 | 35.85248 | -22.38222 | 35342 ft | 411 kts | 288° |
| 2026-04-15 21:39 | 35.87478 | -22.44720 | 35342 ft | 411 kts | 288° |
| 2026-04-15 21:39 | 35.89705 | -22.51216 | 35343 ft | 411 kts | 288° |
| 2026-04-15 21:40 | 35.91932 | -22.57718 | 35335 ft | 411 kts | 288° |
| 2026-04-15 21:40 | 35.94138 | -22.64177 | 35326 ft | 411 kts | 288° |
| 2026-04-15 21:41 | 35.96360 | -22.70680 | 35323 ft | 411 kts | 288° |
| 2026-04-15 21:41 | 35.98573 | -22.77187 | 35322 ft | 411 kts | 288° |
| 2026-04-15 21:42 | 36.00778 | -22.83697 | 35322 ft | 411 kts | 288° |
| 2026-04-15 21:42 | 36.02991 | -22.90224 | 35319 ft | 411 kts | 288° |
| 2026-04-15 21:43 | 36.05194 | -22.96747 | 35320 ft | 412 kts | 288° |
| 2026-04-15 21:43 | 36.07396 | -23.03285 | 35313 ft | 412 kts | 288° |
| 2026-04-15 21:44 | 36.09587 | -23.09823 | 35316 ft | 412 kts | 288° |
| 2026-04-15 21:44 | 36.11790 | -23.16369 | 35315 ft | 412 kts | 288° |
| 2026-04-15 21:45 | 36.13997 | -23.22915 | 35313 ft | 412 kts | 288° |
| 2026-04-15 21:45 | 36.16181 | -23.29424 | 35317 ft | 412 kts | 288° |
| 2026-04-15 21:46 | 36.18356 | -23.35988 | 35312 ft | 412 kts | 288° |
| 2026-04-15 21:46 | 36.20535 | -23.42552 | 35319 ft | 412 kts | 288° |
| 2026-04-15 21:47 | 36.22726 | -23.49122 | 35315 ft | 412 kts | 288° |
| 2026-04-15 21:47 | 36.24542 | -23.54586 | 35317 ft | 412 kts | 288° |
| 2026-04-15 21:48 | 36.26722 | -23.61165 | 35318 ft | 412 kts | 288° |
| 2026-04-15 21:48 | 36.28896 | -23.67745 | 35317 ft | 412 kts | 288° |
| 2026-04-15 21:49 | 36.31057 | -23.74328 | 35319 ft | 412 kts | 288° |
| 2026-04-15 21:49 | 36.33210 | -23.80929 | 35319 ft | 412 kts | 287° |
| 2026-04-15 21:50 | 36.35365 | -23.87524 | 35316 ft | 413 kts | 288° |
| 2026-04-15 21:50 | 36.37523 | -23.94115 | 35320 ft | 413 kts | 288° |
| 2026-04-15 21:51 | 36.39682 | -24.00717 | 35317 ft | 413 kts | 288° |
| 2026-04-15 21:51 | 36.42503 | -24.06983 | 35319 ft | 418 kts | 297° |
| 2026-04-15 21:52 | 36.45569 | -24.13124 | 35317 ft | 418 kts | 297° |
| 2026-04-15 21:52 | 36.48633 | -24.19281 | 35318 ft | 419 kts | 297° |
| 2026-04-15 21:53 | 36.51686 | -24.25445 | 35316 ft | 419 kts | 297° |
| 2026-04-15 21:53 | 36.54734 | -24.31620 | 35312 ft | 419 kts | 297° |
| 2026-04-15 21:54 | 36.57787 | -24.37792 | 35315 ft | 419 kts | 297° |
| 2026-04-15 21:54 | 36.60848 | -24.43969 | 35317 ft | 419 kts | 297° |
| 2026-04-15 21:55 | 36.63899 | -24.50159 | 35318 ft | 419 kts | 296° |
| 2026-04-15 21:55 | 36.66921 | -24.56313 | 35315 ft | 419 kts | 296° |
| 2026-04-15 21:56 | 36.69961 | -24.62515 | 35314 ft | 419 kts | 296° |
| 2026-04-15 21:56 | 36.73003 | -24.68714 | 35310 ft | 419 kts | 296° |
| 2026-04-15 21:57 | 36.76040 | -24.74933 | 35320 ft | 419 kts | 296° |
| 2026-04-15 21:57 | 36.79075 | -24.81145 | 35317 ft | 419 kts | 296° |
| 2026-04-15 21:58 | 36.82116 | -24.87352 | 35312 ft | 419 kts | 296° |
| 2026-04-15 21:58 | 36.85149 | -24.93574 | 35317 ft | 419 kts | 295° |
| 2026-04-15 21:59 | 36.88162 | -24.99796 | 35316 ft | 419 kts | 295° |
| 2026-04-15 21:59 | 36.91159 | -25.05985 | 35316 ft | 419 kts | 295° |
| 2026-04-15 22:00 | 36.94171 | -25.12218 | 35314 ft | 419 kts | 295° |
| 2026-04-15 22:00 | 36.97174 | -25.18459 | 35305 ft | 418 kts | 295° |
| 2026-04-15 22:01 | 37.00146 | -25.24709 | 35303 ft | 418 kts | 295° |
| 2026-04-15 22:01 | 37.03099 | -25.30980 | 35301 ft | 418 kts | 295° |
| 2026-04-15 22:02 | 37.06049 | -25.37260 | 35304 ft | 418 kts | 295° |
| 2026-04-15 22:02 | 37.08999 | -25.43527 | 35299 ft | 417 kts | 296° |
| 2026-04-15 22:03 | 37.11951 | -25.49781 | 35298 ft | 417 kts | 296° |
| 2026-04-15 22:03 | 37.14899 | -25.56042 | 35302 ft | 417 kts | 296° |
| 2026-04-15 22:04 | 37.17837 | -25.62307 | 35302 ft | 417 kts | 296° |
| 2026-04-15 22:04 | 37.20765 | -25.68574 | 35306 ft | 416 kts | 296° |
| 2026-04-15 22:05 | 37.23687 | -25.74841 | 35310 ft | 416 kts | 296° |
| 2026-04-15 22:05 | 37.26582 | -25.81061 | 35301 ft | 415 kts | 296° |
| 2026-04-15 22:06 | 37.29488 | -25.87320 | 35299 ft | 415 kts | 296° |
| 2026-04-15 22:06 | 37.32397 | -25.93582 | 35300 ft | 414 kts | 297° |
| 2026-04-15 22:07 | 37.35302 | -25.99842 | 35297 ft | 414 kts | 297° |
| 2026-04-15 22:07 | 37.38190 | -26.06096 | 35298 ft | 414 kts | 297° |
| 2026-04-15 22:08 | 37.41075 | -26.12354 | 35300 ft | 413 kts | 297° |
| 2026-04-15 22:08 | 37.43955 | -26.18615 | 35164 ft | 414 kts | 297° |
| 2026-04-15 22:08 | 37.45394 | -26.21736 | 34920 ft | 411 kts | 297° |
| 2026-04-15 22:09 | 37.46825 | -26.24849 | 34679 ft | 410 kts | 297° |
| 2026-04-15 22:09 | 37.48246 | -26.27954 | 34444 ft | 408 kts | 297° |
| 2026-04-15 22:09 | 37.49660 | -26.31050 | 34196 ft | 407 kts | 297° |
| 2026-04-15 22:09 | 37.51066 | -26.34130 | 33929 ft | 405 kts | 297° |
| 2026-04-15 22:10 | 37.52468 | -26.37200 | 33657 ft | 404 kts | 297° |
| 2026-04-15 22:10 | 37.53865 | -26.40263 | 33386 ft | 402 kts | 297° |
| 2026-04-15 22:10 | 37.55254 | -26.43309 | 33125 ft | 400 kts | 297° |
| 2026-04-15 22:10 | 37.56639 | -26.46348 | 32860 ft | 399 kts | 297° |
| 2026-04-15 22:11 | 37.58021 | -26.49374 | 32603 ft | 397 kts | 297° |
| 2026-04-15 22:11 | 37.59375 | -26.52339 | 32345 ft | 395 kts | 297° |
| 2026-04-15 22:11 | 37.60745 | -26.55343 | 32094 ft | 394 kts | 297° |
| 2026-04-15 22:11 | 37.62107 | -26.58335 | 31837 ft | 392 kts | 297° |
| 2026-04-15 22:12 | 37.63460 | -26.61314 | 31592 ft | 390 kts | 297° |
| 2026-04-15 22:12 | 37.64807 | -26.64281 | 31345 ft | 389 kts | 297° |
| 2026-04-15 22:12 | 37.66147 | -26.67236 | 31097 ft | 387 kts | 297° |
| 2026-04-15 22:12 | 37.67482 | -26.70184 | 30856 ft | 386 kts | 297° |
| 2026-04-15 22:13 | 37.68808 | -26.73118 | 30617 ft | 384 kts | 297° |
| 2026-04-15 22:13 | 37.70129 | -26.76046 | 30371 ft | 383 kts | 297° |
| 2026-04-15 22:13 | 37.71446 | -26.78961 | 30099 ft | 381 kts | 297° |
| 2026-04-15 22:13 | 37.72756 | -26.81860 | 29823 ft | 379 kts | 297° |
| 2026-04-15 22:14 | 37.74060 | -26.84743 | 29542 ft | 377 kts | 297° |
| 2026-04-15 22:14 | 37.75360 | -26.87616 | 29265 ft | 375 kts | 297° |
| 2026-04-15 22:14 | 37.76646 | -26.90474 | 28995 ft | 373 kts | 297° |
| 2026-04-15 22:14 | 37.77925 | -26.93323 | 28724 ft | 371 kts | 297° |
| 2026-04-15 22:15 | 37.79199 | -26.96158 | 28465 ft | 370 kts | 296° |
| 2026-04-15 22:15 | 37.80463 | -26.98973 | 28191 ft | 368 kts | 296° |
| 2026-04-15 22:15 | 37.81722 | -27.01784 | 27931 ft | 366 kts | 296° |
| 2026-04-15 22:15 | 37.82974 | -27.04582 | 27671 ft | 364 kts | 296° |
| 2026-04-15 22:16 | 37.84219 | -27.07364 | 27415 ft | 363 kts | 296° |
| 2026-04-15 22:16 | 37.85459 | -27.10134 | 27155 ft | 361 kts | 296° |
| 2026-04-15 22:16 | 37.86692 | -27.12893 | 26905 ft | 359 kts | 296° |
| 2026-04-15 22:16 | 37.87912 | -27.15623 | 26632 ft | 353 kts | 296° |
| 2026-04-15 22:17 | 37.89118 | -27.18319 | 26246 ft | 350 kts | 296° |
| 2026-04-15 22:17 | 37.90311 | -27.20987 | 25850 ft | 347 kts | 296° |
| 2026-04-15 22:17 | 37.91490 | -27.23635 | 25454 ft | 344 kts | 296° |
| 2026-04-15 22:17 | 37.92661 | -27.26267 | 25052 ft | 341 kts | 296° |
| 2026-04-15 22:18 | 37.93821 | -27.28876 | 24648 ft | 339 kts | 296° |
| 2026-04-15 22:18 | 37.94959 | -27.31437 | 24244 ft | 337 kts | 296° |
| 2026-04-15 22:18 | 37.96105 | -27.34021 | 23787 ft | 336 kts | 296° |
| 2026-04-15 22:18 | 37.97245 | -27.36587 | 23374 ft | 332 kts | 296° |
| 2026-04-15 22:19 | 37.98372 | -27.39127 | 22962 ft | 328 kts | 295° |
| 2026-04-15 22:19 | 37.99500 | -27.41670 | 22567 ft | 325 kts | 295° |
| 2026-04-15 22:19 | 38.00605 | -27.44157 | 22182 ft | 322 kts | 295° |
| 2026-04-15 22:19 | 38.01683 | -27.46589 | 21804 ft | 319 kts | 295° |
| 2026-04-15 22:20 | 38.02765 | -27.49038 | 21419 ft | 316 kts | 295° |
| 2026-04-15 22:20 | 38.03833 | -27.51459 | 21044 ft | 314 kts | 295° |
| 2026-04-15 22:20 | 38.04892 | -27.53863 | 20671 ft | 311 kts | 295° |
| 2026-04-15 22:20 | 38.05946 | -27.56251 | 20303 ft | 309 kts | 295° |
| 2026-04-15 22:21 | 38.06994 | -27.58626 | 19938 ft | 307 kts | 295° |
| 2026-04-15 22:21 | 38.08035 | -27.60986 | 19581 ft | 305 kts | 295° |
| 2026-04-15 22:21 | 38.09067 | -27.63339 | 19215 ft | 304 kts | 295° |
| 2026-04-15 22:21 | 38.10090 | -27.65675 | 18861 ft | 302 kts | 295° |
| 2026-04-15 22:22 | 38.11111 | -27.68003 | 18499 ft | 301 kts | 295° |
| 2026-04-15 22:22 | 38.12126 | -27.70317 | 18103 ft | 299 kts | 295° |
| 2026-04-15 22:22 | 38.13134 | -27.72617 | 17762 ft | 296 kts | 295° |
| 2026-04-15 22:22 | 38.14143 | -27.74919 | 17351 ft | 301 kts | 295° |
| 2026-04-15 22:23 | 38.15161 | -27.77246 | 16920 ft | 302 kts | 295° |
| 2026-04-15 22:23 | 38.16169 | -27.79547 | 16494 ft | 302 kts | 295° |
| 2026-04-15 22:23 | 38.17208 | -27.81911 | 16069 ft | 302 kts | 295° |
| 2026-04-15 22:23 | 38.18220 | -27.84216 | 15655 ft | 302 kts | 295° |
| 2026-04-15 22:24 | 38.19241 | -27.86551 | 15243 ft | 302 kts | 295° |
| 2026-04-15 22:24 | 38.20258 | -27.88888 | 14824 ft | 302 kts | 295° |
| 2026-04-15 22:24 | 38.21274 | -27.91224 | 14339 ft | 299 kts | 295° |
| 2026-04-15 22:24 | 38.22274 | -27.93515 | 13843 ft | 293 kts | 295° |
| 2026-04-15 22:25 | 38.23252 | -27.95755 | 13328 ft | 287 kts | 295° |
| 2026-04-15 22:25 | 38.24208 | -27.97950 | 12809 ft | 281 kts | 295° |
| 2026-04-15 22:25 | 38.25148 | -28.00110 | 12301 ft | 276 kts | 295° |
| 2026-04-15 22:25 | 38.26069 | -28.02231 | 11793 ft | 272 kts | 295° |
| 2026-04-15 22:26 | 38.26975 | -28.04314 | 11309 ft | 267 kts | 295° |
| 2026-04-15 22:26 | 38.27868 | -28.06367 | 10822 ft | 263 kts | 295° |
| 2026-04-15 22:26 | 38.28744 | -28.08388 | 10343 ft | 259 kts | 296° |
| 2026-04-15 22:26 | 38.29609 | -28.10381 | 9845 ft | 255 kts | 296° |
| 2026-04-15 22:27 | 38.30462 | -28.12346 | 9325 ft | 252 kts | 296° |
| 2026-04-15 22:27 | 38.31306 | -28.14295 | 8814 ft | 250 kts | 296° |
| 2026-04-15 22:27 | 38.32064 | -28.16271 | 8295 ft | 246 kts | 287° |
| 2026-04-15 22:27 | 38.32554 | -28.18351 | 7810 ft | 245 kts | 284° |
| 2026-04-15 22:28 | 38.33040 | -28.20428 | 7317 ft | 245 kts | 285° |
| 2026-04-15 22:28 | 38.33528 | -28.22495 | 6924 ft | 242 kts | 285° |
| 2026-04-15 22:28 | 38.34013 | -28.24544 | 6563 ft | 241 kts | 285° |
| 2026-04-15 22:28 | 38.34472 | -28.26589 | 6173 ft | 239 kts | 284° |
| 2026-04-15 22:29 | 38.34913 | -28.28628 | 5785 ft | 239 kts | 284° |
| 2026-04-15 22:29 | 38.35353 | -28.30665 | 5402 ft | 238 kts | 284° |
| 2026-04-15 22:29 | 38.35792 | -28.32685 | 5026 ft | 236 kts | 284° |
| 2026-04-15 22:29 | 38.36235 | -28.34689 | 4653 ft | 234 kts | 284° |
| 2026-04-15 22:30 | 38.36674 | -28.36657 | 4339 ft | 229 kts | 284° |
| 2026-04-15 22:30 | 38.37108 | -28.38596 | 4031 ft | 226 kts | 284° |
| 2026-04-15 22:30 | 38.37540 | -28.40499 | 3769 ft | 222 kts | 284° |
| 2026-04-15 22:30 | 38.37966 | -28.42363 | 3517 ft | 217 kts | 284° |
| 2026-04-15 22:31 | 38.38708 | -28.43999 | 3250 ft | 217 kts | 314° |
| 2026-04-15 22:31 | 38.39879 | -28.45157 | 2999 ft | 214 kts | 319° |
| 2026-04-15 22:31 | 38.41006 | -28.46365 | 2742 ft | 209 kts | 311° |
| 2026-04-15 22:31 | 38.41993 | -28.47715 | 2477 ft | 207 kts | 308° |
| 2026-04-15 22:32 | 38.42936 | -28.49103 | 2204 ft | 206 kts | 307° |
| 2026-04-15 22:32 | 38.43866 | -28.50486 | 1953 ft | 205 kts | 307° |
| 2026-04-15 22:32 | 38.44792 | -28.51850 | 1730 ft | 202 kts | 307° |
| 2026-04-15 22:32 | 38.45707 | -28.53182 | 1596 ft | 195 kts | 307° |
| 2026-04-15 22:33 | 38.46623 | -28.54411 | 1545 ft | 190 kts | 316° |
| 2026-04-15 22:33 | 38.47769 | -28.55231 | 1578 ft | 184 kts | 331° |
| 2026-04-15 22:33 | 38.48825 | -28.55945 | 1548 ft | 159 kts | 315° |
| 2026-04-15 22:33 | 38.49496 | -28.56931 | 1548 ft | 140 kts | 296° |
| 2026-04-15 22:34 | 38.49848 | -28.57613 | 1556 ft | 137 kts | 297° |
| 2026-04-15 22:34 | 38.50372 | -28.58625 | 1550 ft | 136 kts | 297° |
| 2026-04-15 22:34 | 38.50889 | -28.59626 | 1558 ft | 134 kts | 297° |
| 2026-04-15 22:34 | 38.51387 | -28.60592 | 1554 ft | 129 kts | 297° |
| 2026-04-15 22:35 | 38.51862 | -28.61549 | 1552 ft | 126 kts | 292° |
| 2026-04-15 22:35 | 38.52016 | -28.62637 | 1481 ft | 128 kts | 267° |
| 2026-04-15 22:35 | 38.52008 | -28.63770 | 1274 ft | 127 kts | 269° |
| 2026-04-15 22:35 | 38.52005 | -28.64893 | 1091 ft | 127 kts | 268° |
| 2026-04-15 22:36 | 38.52001 | -28.66019 | 916 ft | 127 kts | 267° |
| 2026-04-15 22:36 | 38.51997 | -28.67146 | 744 ft | 126 kts | 267° |
| 2026-04-15 22:36 | 38.51994 | -28.68269 | 573 ft | 126 kts | 266° |
| 2026-04-15 22:36 | 38.51989 | -28.69387 | 415 ft | 127 kts | 266° |
| 2026-04-15 22:37 | 38.51996 | -28.70512 | 162 ft | 126 kts | 265° |
| 2026-04-15 22:37 | 38.51979 | -28.71498 | 109 ft | 81 kts | 269° |
| 2026-04-15 22:37 | 38.51977 | -28.71831 | 101 ft | 2 kts | 267° |
| 2026-04-15 22:37 | 38.51976 | -28.71868 | 101 ft | 3 kts | 269° |
| 2026-04-15 22:38 | 38.51978 | -28.71918 | 101 ft | 11 kts | 275° |
| 2026-04-15 22:38 | 38.51987 | -28.72153 | 95 ft | 32 kts | 269° |
| 2026-04-15 22:38 | 38.51985 | -28.72361 | 88 ft | 16 kts | 270° |
| 2026-04-15 22:38 | 38.52020 | -28.72487 | 88 ft | 11 kts | 299° |
| 2026-04-15 22:39 | 38.51994 | -28.72536 | 87 ft | 8 kts | 136° |
| 2026-04-15 22:39 | 38.51989 | -28.72460 | 89 ft | 11 kts | 88° |
| 2026-04-15 22:39 | 38.51993 | -28.72347 | 88 ft | 15 kts | 90° |
| 2026-04-15 22:39 | 38.51991 | -28.72223 | 92 ft | 12 kts | 91° |
| 2026-04-15 22:40 | 38.51992 | -28.72129 | 96 ft | 9 kts | 90° |
| 2026-04-15 22:40 | 38.51992 | -28.72066 | 98 ft | 6 kts | 90° |
| 2026-04-15 22:40 | 38.51991 | -28.72025 | 99 ft | 4 kts | 90° |
| 2026-04-15 22:41 | 38.51990 | -28.71833 | 100 ft | 13 kts | 90° |
| 2026-04-15 22:41 | 38.51993 | -28.71725 | 103 ft | 11 kts | 87° |
| 2026-04-15 22:41 | 38.52013 | -28.71652 | 108 ft | 8 kts | 37° |
| 2026-04-15 22:41 | 38.52037 | -28.71643 | 112 ft | 3 kts | 5° |
| 2026-04-15 22:42 | 38.52088 | -28.71644 | 116 ft | 8 kts | 2° |
| 2026-04-15 22:42 | 38.52112 | -28.71599 | 116 ft | 7 kts | 83° |
| 2026-04-15 22:42 | 38.52107 | -28.71572 | 112 ft | 0 kts | 112° |